Time;durP1;ratioP1;P1;durP2;ratioP2;P2;SDS_P1;SDS_P2;PMS_P1;PMS_P2;Temp;Humidity;BMP_temperature;BMP_pressure;BME280_temperature;BME280_humidity;BME280_pressure;Samples;Min_cycle;Max_cycle;Signal;HPM_P1;HPM_P2
2023/07/05 00:32:25;;;;;;;12.20;6.50;;;;;;;21.12;63.28;98921.64;221412;192;1690411;-67
2023/07/05 00:37:28;;;;;;;13.20;6.40;;;;;;;21.02;63.22;98922.66;223448;185;137223;-65
2023/07/05 00:42:32;;;;;;;14.00;7.10;;;;;;;20.97;63.34;98923.17;223337;185;143931;-67
2023/07/05 00:47:37;;;;;;;12.50;7.10;;;;;;;20.91;63.33;98921.79;223398;185;139126;-68
2023/07/05 00:52:40;;;;;;;11.70;6.20;;;;;;;20.90;63.51;98918.53;223350;185;137648;-66
2023/07/05 00:57:46;;;;;;;13.50;6.40;;;;;;;20.87;63.63;98913.48;223265;184;147225;-68
2023/07/05 01:02:55;;;;;;;14.10;7.10;;;;;;;20.84;63.55;98911.73;223567;184;140440;-67
2023/07/05 01:07:59;;;;;;;12.70;7.30;;;;;;;20.84;63.69;98914.78;223642;184;137203;-66
2023/07/05 01:13:20;;;;;;;14.10;7.20;;;;;;;20.83;63.63;98916.91;223499;184;143959;-66
2023/07/05 01:18:34;;;;;;;14.30;8.00;;;;;;;20.83;63.70;98911.77;223444;183;138973;-66
2023/07/05 01:24:10;;;;;;;15.20;7.60;;;;;;;20.79;63.95;98911.58;223562;184;137190;-66
2023/07/05 01:29:35;;;;;;;16.40;7.40;;;;;;;20.74;63.87;98910.13;223602;184;145237;-66
2023/07/05 01:34:54;;;;;;;15.40;7.60;;;;;;;20.73;64.14;98907.34;223518;184;138436;-66
2023/07/05 01:39:57;;;;;;;14.10;8.00;;;;;;;20.67;64.21;98905.15;223609;184;136278;-67
2023/07/05 01:45:01;;;;;;;14.10;8.20;;;;;;;20.58;64.40;98905.86;223548;184;146498;-65
2023/07/05 01:50:20;;;;;;;16.70;8.40;;;;;;;20.53;64.62;98906.72;223518;184;140263;-66
2023/07/05 01:55:31;;;;;;;16.30;7.60;;;;;;;20.45;64.86;98914.11;223569;184;136917;-65
2023/07/05 02:00:37;;;;;;;12.70;7.50;;;;;;;20.40;65.01;98908.65;223499;184;145378;-66
2023/07/05 02:05:41;;;;;;;11.70;7.20;;;;;;;20.38;65.19;98913.16;223442;184;138901;-67
2023/07/05 02:10:45;;;;;;;14.00;7.40;;;;;;;20.40;65.23;98915.68;223636;183;137693;-68
2023/07/05 02:15:50;;;;;;;15.30;7.70;;;;;;;20.45;65.31;98911.31;223751;183;145884;-68
2023/07/05 02:20:55;;;;;;;16.30;7.70;;;;;;;20.46;65.31;98909.86;223619;183;140196;-64
2023/07/05 02:26:05;;;;;;;16.90;7.90;;;;;;;20.43;65.54;98910.69;223655;182;136430;-63
2023/07/05 02:31:11;;;;;;;18.10;8.10;;;;;;;20.40;65.44;98906.84;223648;182;145306;-68
2023/07/05 02:36:17;;;;;;;18.80;7.80;;;;;;;20.32;65.25;98907.36;223590;183;138536;-66
2023/07/05 02:41:21;;;;;;;15.10;6.60;;;;;;;20.23;65.46;98909.72;223634;183;136498;-66
2023/07/05 02:46:26;;;;;;;11.50;6.10;;;;;;;20.16;65.56;98906.84;223634;182;145173;-65
2023/07/05 02:51:32;;;;;;;10.10;6.20;;;;;;;20.04;65.79;98914.52;223577;183;138468;-66
2023/07/05 02:56:36;;;;;;;13.70;6.70;;;;;;;19.97;66.05;98913.29;223782;183;136374;-64
2023/07/05 03:01:40;;;;;;;13.20;6.10;;;;;;;19.96;66.12;98907.23;223612;182;145934;-67
2023/07/05 03:06:43;;;;;;;12.20;6.60;;;;;;;19.99;66.41;98913.77;223626;183;138907;-66
2023/07/05 03:11:46;;;;;;;13.90;7.00;;;;;;;19.98;66.27;98910.32;223643;183;136745;-66
2023/07/05 03:16:50;;;;;;;12.00;6.90;;;;;;;19.93;66.32;98915.34;223686;183;144906;-66
2023/07/05 03:21:53;;;;;;;13.30;7.50;;;;;;;19.93;66.52;98912.67;223621;183;138240;-65
2023/07/05 03:26:56;;;;;;;12.20;7.60;;;;;;;19.92;66.60;98919.02;223663;183;136715;-66
2023/07/05 03:32:01;;;;;;;12.20;7.60;;;;;;;19.89;66.83;98922.77;223618;184;145365;-65
2023/07/05 03:37:05;;;;;;;15.10;7.10;;;;;;;19.89;66.94;98917.51;223607;184;150351;-67
2023/07/05 03:42:08;;;;;;;12.80;7.00;;;;;;;19.87;67.18;98921.21;223592;183;151650;-69
2023/07/05 03:47:12;;;;;;;15.60;7.00;;;;;;;19.88;67.32;98918.77;223710;183;145033;-69
2023/07/05 03:52:15;;;;;;;14.60;7.20;;;;;;;19.96;67.27;98915.39;223642;183;139874;-68
2023/07/05 03:57:18;;;;;;;14.80;7.20;;;;;;;20.05;67.29;98912.53;223795;183;137561;-65
2023/07/05 04:02:22;;;;;;;15.00;7.60;;;;;;;20.13;67.40;98912.20;223551;184;146329;-66
2023/07/05 04:07:29;;;;;;;13.20;7.20;;;;;;;20.22;67.14;98909.26;223739;182;139830;-66
2023/07/05 04:12:32;;;;;;;10.80;6.40;;;;;;;20.31;67.25;98906.86;223712;183;137135;-67
2023/07/05 04:17:37;;;;;;;14.60;6.90;;;;;;;20.42;67.19;98908.83;223713;182;146961;-66
2023/07/05 04:22:42;;;;;;;16.10;6.90;;;;;;;20.51;66.87;98915.55;223765;182;139966;-66
2023/07/05 04:27:45;;;;;;;13.20;6.50;;;;;;;20.60;66.84;98915.60;223816;182;136787;-65
2023/07/05 04:32:48;;;;;;;12.50;6.30;;;;;;;20.70;66.73;98915.07;223800;182;145192;-68
2023/07/05 04:37:51;;;;;;;13.60;7.50;;;;;;;20.83;66.38;98922.19;223614;182;138281;-68
2023/07/05 04:42:54;;;;;;;17.30;7.30;;;;;;;20.96;65.75;98922.77;223755;182;137388;-65
2023/07/05 04:47:58;;;;;;;12.40;7.50;;;;;;;21.04;65.26;98919.14;223757;182;146050;-64
2023/07/05 04:53:01;;;;;;;73.50;50.50;;;;;;;21.17;65.25;98917.96;223587;182;138417;-66
2023/07/05 04:58:04;;;;;;;16.10;8.50;;;;;;;21.33;65.37;98919.09;223643;182;137873;-66
2023/07/05 05:03:07;;;;;;;20.70;7.90;;;;;;;21.42;65.15;98924.43;223833;182;145466;-65
2023/07/05 05:08:11;;;;;;;24.50;9.10;;;;;;;21.54;64.95;98925.20;223588;182;138375;-69
2023/07/05 05:13:14;;;;;;;58.50;40.10;;;;;;;21.65;64.84;98924.88;223512;182;136537;-66
2023/07/05 05:18:18;;;;;;;31.00;9.30;;;;;;;21.74;64.84;98929.64;223669;183;145186;-66
2023/07/05 05:23:21;;;;;;;250.70;18.30;;;;;;;21.79;64.57;98930.72;223605;183;138070;-65
2023/07/05 05:28:25;;;;;;;40.90;10.30;;;;;;;21.88;64.75;98927.67;223681;182;138034;-66
2023/07/05 05:33:28;;;;;;;27.80;9.30;;;;;;;22.03;64.32;98926.73;223786;182;145753;-65
2023/07/05 05:38:35;;;;;;;149.00;106.80;;;;;;;22.21;64.12;98920.60;223637;182;139299;-66
2023/07/05 05:43:38;;;;;;;47.10;27.30;;;;;;;22.40;63.80;98917.89;223547;182;137068;-65
2023/07/05 05:48:42;;;;;;;19.90;9.30;;;;;;;22.56;63.30;98915.81;223651;183;145318;-66
2023/07/05 05:53:45;;;;;;;18.80;8.70;;;;;;;22.67;62.60;98916.65;223717;183;138883;-68
2023/07/05 05:58:48;;;;;;;21.50;8.60;;;;;;;22.78;62.14;98912.71;223673;182;137083;-66
2023/07/05 06:03:52;;;;;;;51.20;31.70;;;;;;;22.89;62.17;98912.40;223590;182;145296;-69
2023/07/05 06:08:55;;;;;;;40.20;27.90;;;;;;;22.99;61.39;98913.52;223722;183;138794;-64
2023/07/05 06:13:58;;;;;;;26.10;9.40;;;;;;;23.09;61.01;98910.40;223674;182;137305;-64
2023/07/05 06:19:01;;;;;;;15.40;7.30;;;;;;;23.18;60.17;98912.46;223655;182;145182;-67
2023/07/05 06:24:05;;;;;;;12.50;6.50;;;;;;;23.27;58.70;98911.69;223742;182;138427;-65
2023/07/05 06:29:08;;;;;;;18.20;7.80;;;;;;;23.34;58.18;98909.81;223712;182;137806;-63
2023/07/05 06:34:11;;;;;;;31.20;9.20;;;;;;;23.45;58.78;98907.80;223704;183;145014;-63
2023/07/05 06:39:14;;;;;;;26.30;9.80;;;;;;;23.55;58.69;98903.23;223575;183;139408;-63
2023/07/05 06:44:18;;;;;;;25.90;8.70;;;;;;;23.64;58.56;98903.45;223728;182;137741;-64
2023/07/05 06:49:21;;;;;;;23.40;8.20;;;;;;;23.69;58.57;98909.01;223629;182;145225;-63
2023/07/05 06:54:28;;;;;;;25.90;9.60;;;;;;;23.75;58.74;98903.52;223638;179;138405;-63
2023/07/05 06:59:32;;;;;;;20.80;8.00;;;;;;;23.82;58.66;98902.88;223523;182;137189;-64
2023/07/05 07:04:35;;;;;;;84.70;67.60;;;;;;;23.89;58.46;98900.31;223399;182;147774;-66
2023/07/05 07:09:40;;;;;;;37.70;19.60;;;;;;;23.99;58.18;98893.86;223668;182;138456;-64
2023/07/05 07:14:44;;;;;;;29.40;11.50;;;;;;;24.10;58.29;98889.20;223786;182;136917;-62
2023/07/05 07:19:47;;;;;;;28.10;10.30;;;;;;;24.21;57.77;98892.04;223693;182;145421;-64
2023/07/05 07:24:51;;;;;;;29.80;9.90;;;;;;;24.28;57.20;98893.32;223696;182;138481;-63
2023/07/05 07:29:54;;;;;;;27.70;9.70;;;;;;;24.35;57.10;98890.66;223625;182;137545;-64
2023/07/05 07:34:57;;;;;;;105.40;78.70;;;;;;;24.42;57.08;98887.03;223650;179;145781;-65
2023/07/05 07:40:01;;;;;;;59.90;42.10;;;;;;;24.52;57.03;98885.39;223788;182;140449;-61
2023/07/05 07:45:05;;;;;;;27.40;12.50;;;;;;;24.62;57.24;98889.33;223525;182;137116;-67
2023/07/05 07:50:12;;;;;;;17.60;7.60;;;;;;;24.68;57.82;98881.05;223589;182;145283;-64
2023/07/05 07:55:16;;;;;;;16.30;8.70;;;;;;;24.76;56.70;98883.70;223612;182;138209;-64
2023/07/05 08:00:19;;;;;;;14.20;7.40;;;;;;;24.86;56.77;98882.82;223553;182;136918;-65
2023/07/05 08:05:23;;;;;;;16.20;8.00;;;;;;;24.96;56.05;98882.66;223507;182;145249;-64
2023/07/05 08:10:34;;;;;;;29.10;18.50;;;;;;;25.03;55.55;98880.18;223520;183;138859;-68
2023/07/05 08:15:38;;;;;;;84.20;63.90;;;;;;;25.10;54.80;98877.46;223762;182;137247;-70
2023/07/05 08:20:41;;;;;;;22.20;10.50;;;;;;;25.22;55.29;98879.09;223672;182;146657;-68
2023/07/05 08:25:45;;;;;;;22.00;10.50;;;;;;;25.34;54.90;98878.66;223617;182;138974;-65
2023/07/05 08:31:02;;;;;;;19.70;8.40;;;;;;;25.45;54.56;98874.15;223620;182;137239;-71
2023/07/05 08:36:18;;;;;;;15.60;7.60;;;;;;;25.55;53.77;98868.98;223684;182;148839;-69
2023/07/05 08:41:43;;;;;;;19.10;9.10;;;;;;;25.67;53.89;98866.64;223602;182;138752;-65
2023/07/05 08:46:49;;;;;;;;;;;;;;;25.79;53.28;98866.96;223586;182;137240;-65
2023/07/05 08:51:56;;;;;;;14.10;8.10;;;;;;;25.92;52.78;98864.02;223693;182;145523;-64
2023/07/05 09:02:02;;;;;;;10.80;6.60;;;;;;;25.91;52.09;98850.22;221710;193;688368;-66
2023/07/05 09:07:15;;;;;;;15.40;7.40;;;;;;;26.03;51.49;98853.49;223754;182;136657;-64
2023/07/05 09:12:34;;;;;;;10.80;6.80;;;;;;;26.06;51.14;98846.13;223572;182;144704;-65
2023/07/05 09:17:58;;;;;;;10.90;6.00;;;;;;;26.20;50.21;98839.34;223632;182;139385;-65
2023/07/05 09:23:08;;;;;;;13.40;6.40;;;;;;;26.41;49.76;98830.14;223824;183;136641;-66
2023/07/05 09:28:20;;;;;;;55.80;46.00;;;;;;;26.56;49.69;98835.36;223708;183;144844;-66
2023/07/05 09:33:29;;;;;;;16.90;10.40;;;;;;;26.73;49.36;98825.27;223599;183;138223;-65
2023/07/05 09:38:41;;;;;;;11.60;6.60;;;;;;;26.88;48.38;98821.00;223596;183;136800;-65
2023/07/05 09:43:44;;;;;;;11.80;7.80;;;;;;;27.07;47.76;98822.23;223606;183;144132;-67
2023/07/05 09:48:47;;;;;;;12.70;7.30;;;;;;;27.24;45.67;98818.24;223712;183;138929;-66
2023/07/05 09:54:25;;;;;;;8.70;6.10;;;;;;;27.43;45.93;98822.02;223645;182;138034;-66
2023/07/05 09:59:34;;;;;;;9.30;6.30;;;;;;;27.63;45.33;98817.94;223648;183;145296;-68
2023/07/05 10:04:53;;;;;;;10.70;6.10;;;;;;;27.78;44.20;98810.67;223580;183;140457;-67
2023/07/05 10:10:05;;;;;;;8.80;6.00;;;;;;;27.90;44.70;98807.68;223639;183;136477;-67
2023/07/05 10:15:23;;;;;;;9.10;5.70;;;;;;;27.99;43.39;98805.95;223709;183;147096;-67
2023/07/05 10:20:36;;;;;;;8.40;5.80;;;;;;;28.09;43.12;98800.00;223655;181;138428;-68
2023/07/05 10:25:41;;;;;;;7.10;5.40;;;;;;;28.32;43.29;98793.55;223775;182;136863;-68
2023/07/05 10:30:52;;;;;;;11.50;5.70;;;;;;;28.57;43.06;98784.44;223725;181;145781;-67
2023/07/05 10:39:26;;;;;;;9.50;5.70;;;;;;;28.90;41.41;98783.10;221370;192;665495;-68
2023/07/05 10:44:38;;;;;;;6.50;4.70;;;;;;;29.06;40.64;98778.42;223424;186;137584;-68
2023/07/05 10:49:46;;;;;;;7.90;4.50;;;;;;;29.26;40.38;98771.77;223390;186;143548;-67
2023/07/05 10:55:22;;;;;;;8.20;5.40;;;;;;;29.32;39.04;98775.80;223675;182;139081;-66
2023/07/05 11:00:38;;;;;;;10.80;5.00;;;;;;;29.23;39.49;98773.38;223774;183;137441;-68
2023/07/05 11:05:47;;;;;;;7.20;4.70;;;;;;;29.37;39.26;98759.44;223603;183;144819;-67
2023/07/05 11:10:52;;;;;;;6.90;4.20;;;;;;;29.52;39.01;98751.09;223574;183;139373;-66
2023/07/05 11:16:33;;;;;;;7.60;4.40;;;;;;;29.71;38.10;98746.02;221904;193;665969;-67
2023/07/05 11:21:57;;;;;;;66.10;55.90;;;;;;;29.82;37.99;98737.32;223456;183;137280;-68
2023/07/05 12:02:25;;;;;;;6.80;4.00;;;;;;;30.53;35.73;98708.71;219583;192;688715;-67
2023/07/05 12:07:30;;;;;;;7.30;3.70;;;;;;;30.46;35.18;98702.27;223051;186;136876;-67
2023/07/05 12:12:40;;;;;;;7.40;4.00;;;;;;;30.53;34.80;98693.84;223651;183;143356;-67
2023/07/05 12:17:44;;;;;;;7.90;4.00;;;;;;;30.67;35.29;98680.50;223786;182;138845;-67
2023/07/05 12:22:48;;;;;;;11.30;4.20;;;;;;;30.94;35.51;98669.45;223669;183;137491;-66
2023/07/05 12:27:52;;;;;;;6.90;3.90;;;;;;;31.12;34.09;98664.08;223701;182;144417;-67
2023/07/05 12:32:56;;;;;;;;;;;;;;;31.27;33.51;98654.39;223742;182;139216;-67
2023/07/05 12:38:16;;;;;;;10.80;4.10;;;;;;;31.55;33.89;98650.00;223628;182;129158;-65
2023/07/05 12:43:25;;;;;;;9.40;4.40;;;;;;;31.53;33.14;98643.66;223710;183;143440;-67
2023/07/05 12:48:29;;;;;;;7.30;4.10;;;;;;;31.36;32.90;98639.65;223668;183;139277;-66
2023/07/05 12:53:33;;;;;;;5.30;4.00;;;;;;;30.97;32.84;98630.20;223686;182;136657;-66
2023/07/05 13:02:04;;;;;;;7.80;4.10;;;;;;;30.48;33.83;98615.81;219601;193;688684;-65
2023/07/05 13:07:16;;;;;;;7.70;3.90;;;;;;;30.31;34.40;98607.66;221031;182;136720;-65
2023/07/05 13:12:22;;;;;;;6.40;4.10;;;;;;;30.29;34.61;98602.95;223751;182;143505;-65
2023/07/05 13:17:29;;;;;;;20.30;5.20;;;;;;;30.06;35.51;98592.66;223551;182;139451;-66
2023/07/05 13:22:38;;;;;;;15.00;6.20;;;;;;;29.99;36.34;98584.17;223663;182;136492;-66
2023/07/05 13:27:42;;;;;;;14.10;5.10;;;;;;;30.21;36.51;98579.39;223704;182;144791;-66
2023/07/05 13:32:51;;;;;;;6.30;4.30;;;;;;;30.66;35.43;98563.98;223680;182;138280;-66
2023/07/05 13:37:56;;;;;;;9.20;5.20;;;;;;;31.01;35.28;98552.73;223662;182;136350;-66
2023/07/05 13:43:00;;;;;;;7.60;4.80;;;;;;;31.25;34.94;98547.27;223652;182;144052;-66
2023/07/05 13:48:07;;;;;;;7.90;5.00;;;;;;;31.58;34.17;98540.93;223579;182;138899;-66
2023/07/05 13:53:29;;;;;;;14.10;5.30;;;;;;;31.66;33.83;98539.18;223684;181;137160;-67
2023/07/05 13:58:33;;;;;;;21.90;6.10;;;;;;;31.19;34.14;98534.95;223671;182;146608;-66
2023/07/05 14:03:36;;;;;;;46.70;35.40;;;;;;;31.35;34.26;98538.20;223721;182;138607;-66
2023/07/05 14:08:59;;;;;;;17.00;7.60;;;;;;;31.63;33.48;98543.90;223581;181;136913;-66
2023/07/05 14:14:04;;;;;;;7.00;5.10;;;;;;;31.88;33.73;98528.77;223664;181;146725;-65
2023/07/05 14:21:39;;;;;;;6.20;4.80;;;;;;;32.05;33.06;98532.43;221234;192;666650;-65
2023/07/05 14:26:42;;;;;;;11.60;4.90;;;;;;;32.00;32.54;98531.20;223327;185;137083;-65
2023/07/05 14:31:46;;;;;;;8.90;5.20;;;;;;;31.89;32.49;98527.23;223651;183;144387;-66
2023/07/05 14:36:49;;;;;;;9.20;5.40;;;;;;;31.55;32.18;98533.45;223829;181;138945;-65
2023/07/05 14:41:52;;;;;;;12.20;5.30;;;;;;;31.38;32.31;98522.21;223846;181;136816;-65
2023/07/05 14:46:58;;;;;;;31.50;22.10;;;;;;;31.17;32.11;98506.23;223889;180;143828;-66
2023/07/05 14:52:02;;;;;;;7.70;5.50;;;;;;;30.99;32.56;98493.38;223846;180;139551;-66
2023/07/05 14:57:27;;;;;;;6.90;4.40;;;;;;;30.85;33.08;98484.45;223727;181;136521;-66
2023/07/05 15:02:30;;;;;;;8.90;4.50;;;;;;;30.59;32.95;98471.00;223664;180;143746;-65
2023/07/05 15:07:34;;;;;;;11.60;4.80;;;;;;;30.34;33.55;98467.07;223738;181;138162;-66
2023/07/05 15:12:39;;;;;;;9.80;5.20;;;;;;;30.16;33.63;98462.58;223691;180;136884;-64
2023/07/05 15:17:42;;;;;;;9.80;4.30;;;;;;;30.03;33.33;98463.45;223680;180;146154;-65
2023/07/05 15:22:47;;;;;;;7.20;4.60;;;;;;;29.75;33.38;98466.44;223622;181;138617;-65
2023/07/05 15:27:51;;;;;;;;;;;;;;;29.50;33.59;98474.00;223703;180;137477;-65
2023/07/05 15:32:55;;;;;;;7.80;4.20;;;;;;;29.28;33.65;98472.89;223756;181;145447;-65
2023/07/05 15:41:17;;;;;;;9.40;4.90;;;;;;;29.17;34.28;98469.29;221801;193;666001;-65
2023/07/05 15:46:20;;;;;;;8.70;4.70;;;;;;;29.11;34.46;98466.05;223514;183;136226;-65
2023/07/05 15:51:25;;;;;;;7.70;5.40;;;;;;;29.05;34.71;98458.16;223515;183;143466;-66
2023/07/05 15:56:29;;;;;;;39.80;34.30;;;;;;;29.00;35.30;98461.16;223641;183;138312;-66
2023/07/05 16:01:32;;;;;;;13.80;7.80;;;;;;;28.94;35.80;98460.45;223633;183;136712;-66
2023/07/05 16:06:38;;;;;;;21.30;14.20;;;;;;;28.92;36.22;98457.64;223582;183;143473;-67
2023/07/05 16:11:41;;;;;;;17.80;10.10;;;;;;;28.88;36.54;98458.41;223548;183;138417;-65
2023/07/05 16:16:44;;;;;;;29.60;16.90;;;;;;;28.86;36.98;98455.02;223575;183;138856;-68
2023/07/05 16:21:51;;;;;;;13.40;7.60;;;;;;;28.84;36.86;98483.73;223572;183;143415;-69
2023/07/05 16:26:57;;;;;;;13.90;6.10;;;;;;;28.57;37.36;98582.21;223432;184;138442;-67
2023/07/05 16:32:01;;;;;;;18.00;4.30;;;;;;;28.04;39.51;98612.42;223657;183;137805;-67
2023/07/05 16:37:07;;;;;;;23.20;3.30;;;;;;;27.59;41.76;98605.73;223588;182;146077;-66
2023/07/05 16:42:10;;;;;;;10.20;3.50;;;;;;;26.94;46.52;98618.97;223524;183;138493;-68
2023/07/05 16:47:13;;;;;;;6.30;3.00;;;;;;;26.15;48.57;98627.70;223634;183;139801;-70
2023/07/05 16:52:21;;;;;;;10.50;4.00;;;;;;;25.53;50.93;98634.87;223633;182;145935;-67
2023/07/05 16:57:24;;;;;;;6.50;3.50;;;;;;;24.98;52.76;98630.71;223761;182;140005;-66
2023/07/05 17:02:31;;;;;;;10.00;3.50;;;;;;;24.47;54.76;98620.11;223706;181;137177;-72
2023/07/05 17:07:34;;;;;;;14.10;5.00;;;;;;;24.16;55.99;98601.58;223672;182;145656;-67
2023/07/05 17:12:38;;;;;;;19.50;8.40;;;;;;;23.91;57.14;98605.86;223474;182;138357;-66
2023/07/05 17:17:42;;;;;;;15.40;7.20;;;;;;;23.71;58.20;98610.91;223652;181;137049;-69
2023/07/05 17:22:46;;;;;;;12.60;4.90;;;;;;;23.48;58.61;98600.86;223634;181;145462;-65
2023/07/05 17:27:50;;;;;;;124.10;94.80;;;;;;;23.32;59.46;98620.39;223692;183;138450;-65
2023/07/05 17:32:54;;;;;;;23.20;19.50;;;;;;;23.16;60.62;98628.98;223731;182;138065;-67
2023/07/05 17:37:57;;;;;;;12.20;6.70;;;;;;;23.03;62.12;98635.70;223706;181;146256;-68
2023/07/05 17:43:05;;;;;;;10.50;5.30;;;;;;;23.02;61.87;98629.27;223470;181;141967;-67
2023/07/05 17:48:08;;;;;;;7.00;4.00;;;;;;;22.92;62.18;98648.58;223679;181;137179;-68
2023/07/05 17:53:11;;;;;;;8.50;4.40;;;;;;;22.84;62.55;98644.47;223561;182;146155;-67
2023/07/05 17:58:14;;;;;;;7.50;3.20;;;;;;;22.81;63.27;98643.48;223579;181;138303;-67
2023/07/05 18:03:18;;;;;;;244.30;203.30;;;;;;;22.76;63.32;98658.61;223633;181;137083;-66
2023/07/05 18:08:21;;;;;;;12.40;8.20;;;;;;;22.73;63.90;98675.22;223633;182;146214;-65
2023/07/05 18:13:27;;;;;;;7.70;3.80;;;;;;;22.72;63.10;98685.52;223579;182;138167;-65
2023/07/05 18:18:31;;;;;;;;;;;;;;;22.68;63.07;98703.65;223620;183;138683;-64
2023/07/05 18:23:34;;;;;;;4.90;2.80;;;;;;;22.59;63.56;98724.08;223625;181;146114;-66
2023/07/05 18:28:41;;;;;;;4.60;3.00;;;;;;;22.54;63.59;98747.06;223696;182;138434;-67
2023/07/05 18:33:44;;;;;;;9.80;3.00;;;;;;;22.51;62.95;98784.30;223726;182;138155;-65
2023/07/05 18:38:47;;;;;;;84.90;75.40;;;;;;;22.49;63.12;98815.89;223622;182;146036;-68
2023/07/05 18:43:51;;;;;;;9.40;4.10;;;;;;;22.48;63.99;98818.58;223595;182;138745;-65
2023/07/05 18:48:54;;;;;;;4.70;3.20;;;;;;;22.37;64.70;98817.54;223634;182;138130;-66
2023/07/05 18:53:58;;;;;;;31.00;27.60;;;;;;;22.29;65.40;98820.55;223634;181;145390;-65
2023/07/05 18:59:02;;;;;;;8.30;3.40;;;;;;;22.29;65.38;98831.12;223612;181;138924;-66
2023/07/05 19:04:06;;;;;;;5.70;2.60;;;;;;;22.38;64.66;98838.48;223743;178;137132;-66
2023/07/05 19:09:10;;;;;;;4.40;2.80;;;;;;;22.42;64.18;98861.79;223778;181;146399;-65
2023/07/05 19:14:13;;;;;;;4.90;3.30;;;;;;;22.42;64.35;98877.92;223622;182;138256;-65
2023/07/05 19:19:16;;;;;;;5.40;3.00;;;;;;;22.33;65.33;98881.68;223641;183;139192;-66
2023/07/05 19:24:20;;;;;;;7.00;2.90;;;;;;;22.21;66.47;98878.14;223714;181;145362;-65
2023/07/05 19:29:23;;;;;;;8.80;3.20;;;;;;;22.19;66.88;98878.19;223617;182;139117;-66
2023/07/05 19:34:26;;;;;;;9.80;3.10;;;;;;;22.20;67.20;98876.62;223586;182;137492;-67
2023/07/05 19:39:29;;;;;;;7.10;3.30;;;;;;;22.23;67.04;98878.32;223685;182;145948;-65
2023/07/05 19:44:34;;;;;;;4.90;3.00;;;;;;;22.25;66.91;98867.98;223663;182;138932;-65
2023/07/05 19:49:37;;;;;;;4.40;3.00;;;;;;;22.22;66.89;98857.11;223734;182;137193;-64
2023/07/05 19:54:40;;;;;;;6.80;3.20;;;;;;;22.15;66.63;98850.30;223613;182;145281;-66
2023/07/05 19:59:43;;;;;;;10.30;3.30;;;;;;;22.05;67.26;98839.00;223626;182;139126;-66
2023/07/05 20:04:47;;;;;;;8.90;3.30;;;;;;;21.97;67.79;98829.36;223643;181;138273;-67
2023/07/05 20:09:50;;;;;;;7.20;2.90;;;;;;;21.93;68.40;98826.52;223593;182;145117;-67
2023/07/05 20:14:54;;;;;;;6.80;3.10;;;;;;;21.90;68.52;98821.86;223600;182;139243;-65
2023/07/05 20:19:57;;;;;;;5.60;3.10;;;;;;;21.81;68.30;98833.83;223633;181;137737;-65
2023/07/05 20:25:15;;;;;;;9.00;3.00;;;;;;;21.72;68.42;98841.40;223638;182;145297;-65
2023/07/05 20:30:20;;;;;;;7.80;3.20;;;;;;;21.65;67.71;98846.32;223545;182;138224;-65
2023/07/05 20:35:24;;;;;;;;;;;;;;;21.62;67.88;98857.52;223723;182;139425;-65
2023/07/05 20:40:29;;;;;;;6.10;3.10;;;;;;;21.60;68.25;98867.84;223778;182;145808;-65
2023/07/05 20:45:33;;;;;;;5.40;3.40;;;;;;;21.62;68.71;98882.16;223618;182;138752;-65
2023/07/05 20:50:36;;;;;;;8.40;3.50;;;;;;;21.70;68.78;98874.95;223636;181;138071;-65
2023/07/05 20:55:39;;;;;;;6.40;3.50;;;;;;;21.68;68.88;98885.69;223628;182;145291;-65
2023/07/05 21:00:43;;;;;;;7.40;4.10;;;;;;;21.67;69.21;98893.20;223745;182;138911;-66
2023/07/05 21:05:47;;;;;;;6.90;4.10;;;;;;;21.75;69.20;98889.80;223685;182;137418;-65
2023/07/05 21:10:52;;;;;;;12.50;4.10;;;;;;;21.80;69.23;98897.98;223632;181;145824;-64
2023/07/05 21:16:04;;;;;;;10.60;4.30;;;;;;;21.84;69.21;98891.48;223717;181;138085;-65
2023/07/05 21:21:09;;;;;;;7.40;4.00;;;;;;;21.80;69.32;98907.98;223739;183;138333;-65
2023/07/05 21:26:13;;;;;;;8.10;4.10;;;;;;;21.83;69.30;98908.04;223583;183;146712;-65
2023/07/05 21:31:16;;;;;;;9.10;4.10;;;;;;;21.90;69.60;98912.15;223607;181;138338;-65
2023/07/05 21:36:20;;;;;;;8.30;4.40;;;;;;;21.91;69.92;98912.19;223653;181;136509;-65
2023/07/05 21:41:23;;;;;;;9.90;4.50;;;;;;;21.86;69.99;98908.98;223726;183;146419;-66
2023/07/05 21:46:27;;;;;;;9.00;5.30;;;;;;;21.83;70.24;98904.27;223549;182;138101;-66
2023/07/05 21:51:34;;;;;;;12.20;4.60;;;;;;;21.78;70.29;98897.80;223772;183;137357;-65
2023/07/05 21:56:41;;;;;;;9.40;4.90;;;;;;;21.70;70.50;98896.34;223692;182;145226;-65
2023/07/05 22:01:45;;;;;;;9.30;4.80;;;;;;;21.67;70.93;98893.89;223756;182;138574;-65
2023/07/05 22:06:50;;;;;;;10.70;4.70;;;;;;;21.70;70.89;98892.36;223624;182;137129;-65
2023/07/05 22:11:53;;;;;;;8.10;5.00;;;;;;;21.69;71.04;98890.42;223655;182;145164;-67
2023/07/05 22:16:57;;;;;;;8.50;4.50;;;;;;;21.68;71.15;98880.07;223614;178;138221;-67
2023/07/05 22:22:01;;;;;;;7.30;4.70;;;;;;;21.70;70.99;98883.29;223716;182;136842;-64
2023/07/05 22:27:04;;;;;;;8.40;4.60;;;;;;;21.68;71.10;98879.31;223662;182;146880;-67
2023/07/05 22:32:08;;;;;;;7.20;4.70;;;;;;;21.66;71.53;98878.30;223651;182;138458;-66
2023/07/05 22:37:15;;;;;;;7.50;4.50;;;;;;;21.69;71.54;98867.33;223609;182;138114;-70
2023/07/05 22:42:18;;;;;;;7.30;4.90;;;;;;;21.73;71.45;98864.14;223673;181;145213;-67
2023/07/05 22:47:23;;;;;;;8.00;5.20;;;;;;;21.71;71.50;98857.00;223684;181;138753;-67
2023/07/05 22:52:26;;;;;;;8.60;4.90;;;;;;;21.66;71.82;98847.84;223595;181;136912;-67
2023/07/05 22:57:29;;;;;;;9.60;5.20;;;;;;;21.61;72.10;98846.72;223721;181;146094;-67
2023/07/05 23:02:32;;;;;;;11.50;4.50;;;;;;;21.60;72.36;98846.34;223729;182;139511;-67
2023/07/05 23:07:36;;;;;;;7.30;4.50;;;;;;;21.59;72.28;98838.33;223607;182;137261;-65
2023/07/05 23:12:39;;;;;;;7.90;4.70;;;;;;;21.60;72.12;98835.31;223571;182;145502;-66
2023/07/05 23:17:43;;;;;;;10.20;5.40;;;;;;;21.60;72.07;98832.60;223631;182;138160;-66
2023/07/05 23:22:46;;;;;;;10.50;5.00;;;;;;;21.64;71.70;98830.90;223645;182;137165;-66
2023/07/05 23:27:50;;;;;;;12.00;5.10;;;;;;;21.60;71.73;98830.98;223636;182;145881;-68
2023/07/05 23:32:55;;;;;;;9.80;5.20;;;;;;;21.50;71.93;98833.70;223750;182;138629;-68
2023/07/05 23:37:58;;;;;;;10.80;5.60;;;;;;;21.44;72.03;98835.42;223608;182;137446;-67
2023/07/05 23:43:02;;;;;;;10.80;5.30;;;;;;;21.44;72.15;98836.38;223777;182;146310;-68
2023/07/05 23:48:06;;;;;;;13.10;5.70;;;;;;;21.41;72.24;98839.15;223671;181;139536;-66
2023/07/05 23:53:10;;;;;;;9.70;5.20;;;;;;;21.34;72.20;98842.85;223664;183;139935;-65
2023/07/05 23:58:14;;;;;;;11.00;5.20;;;;;;;21.28;71.75;98844.63;223665;182;146307;-69
